Time;durP1;ratioP1;P1;durP2;ratioP2;P2;SDS_P1;SDS_P2;PMS_P1;PMS_P2;Temp;Humidity;BMP_temperature;BMP_pressure;BME280_temperature;BME280_humidity;BME280_pressure;Samples;Min_cycle;Max_cycle;Signal;HPM_P1;HPM_P2
2021/03/22 00:00:18;;;;;;;22.97;17.97;;;5.00;99.90;;;;;;5091026;28;20440;-71
2021/03/22 00:02:45;;;;;;;23.67;17.40;;;4.90;99.90;;;;;;5090831;28;20764;-69
2021/03/22 00:05:12;;;;;;;22.00;16.77;;;4.90;99.90;;;;;;5090753;28;20952;-68
2021/03/22 00:07:38;;;;;;;25.90;20.03;;;4.80;99.90;;;;;;5091107;28;20843;-70
2021/03/22 00:10:07;;;;;;;23.07;20.40;;;4.80;99.90;;;;;;5090540;28;20480;-71
2021/03/22 00:12:33;;;;;;;28.20;17.50;;;4.70;99.90;;;;;;5090930;28;21122;-70
2021/03/22 00:14:59;;;;;;;21.40;18.87;;;4.60;99.90;;;;;;5089879;28;20929;-69
2021/03/22 00:17:26;;;;;;;22.57;17.20;;;4.60;99.90;;;;;;5090436;28;20478;-68
2021/03/22 00:19:53;;;;;;;18.40;16.50;;;4.50;99.90;;;;;;5090655;28;20447;-68
2021/03/22 00:22:19;;;;;;;24.97;17.30;;;4.50;99.90;;;;;;5090447;28;20823;-71
2021/03/22 00:24:45;;;;;;;29.60;18.17;;;4.50;99.90;;;;;;5090449;28;20491;-70
2021/03/22 00:27:12;;;;;;;26.47;18.30;;;4.50;99.90;;;;;;5090694;28;20941;-71
2021/03/22 00:29:38;;;;;;;22.90;18.33;;;4.50;99.90;;;;;;5090554;28;20456;-70
2021/03/22 00:32:05;;;;;;;21.57;16.97;;;4.60;99.90;;;;;;5090528;28;20861;-71
2021/03/22 00:34:31;;;;;;;29.43;18.47;;;4.60;99.90;;;;;;5090273;28;20856;-70
2021/03/22 00:36:58;;;;;;;29.60;17.73;;;4.70;99.90;;;;;;5090192;28;20451;-70
2021/03/22 00:39:24;;;;;;;24.33;17.83;;;4.80;99.90;;;;;;5090521;28;20470;-70
2021/03/22 00:41:50;;;;;;;26.00;17.60;;;4.80;99.90;;;;;;5090655;28;20468;-70
2021/03/22 00:44:17;;;;;;;39.47;19.73;;;4.90;99.90;;;;;;5090207;28;20442;-70
2021/03/22 00:46:43;;;;;;;21.27;18.10;;;4.90;99.90;;;;;;5090180;28;20442;-70
2021/03/22 00:49:09;;;;;;;20.43;15.90;;;5.00;99.90;;;;;;5090214;28;20976;-70
2021/03/22 00:51:35;;;;;;;20.40;16.60;;;5.10;99.90;;;;;;5094007;28;20545;-70
2021/03/22 00:54:03;;;;;;;23.83;18.10;;;5.10;99.90;;;;;;5094365;28;20449;-71
2021/03/22 00:56:29;;;;;;;25.37;16.50;;;5.20;99.90;;;;;;5094359;28;20443;-70
2021/03/22 00:58:55;;;;;;;24.63;17.50;;;5.20;99.90;;;;;;5094431;28;20523;-71
2021/03/22 01:01:21;;;;;;;20.30;17.40;;;5.10;99.90;;;;;;5094407;28;20437;-71
2021/03/22 01:03:47;;;;;;;21.80;17.43;;;5.20;99.90;;;;;;5094078;28;20459;-71
2021/03/22 01:06:14;;;;;;;20.13;15.83;;;5.30;99.90;;;;;;5094182;28;20451;-71
2021/03/22 01:08:41;;;;;;;21.00;17.00;;;5.20;99.90;;;;;;5094234;28;20442;-70
2021/03/22 01:11:11;;;;;;;19.30;17.23;;;5.30;99.90;;;;;;5094289;28;20483;-71
2021/03/22 01:13:40;;;;;;;26.70;17.03;;;5.30;99.90;;;;;;5094133;28;20503;-70
2021/03/22 01:16:07;;;;;;;17.43;15.50;;;5.30;99.90;;;;;;5094051;28;20475;-71
2021/03/22 01:18:36;;;;;;;23.00;16.60;;;5.30;99.90;;;;;;5094002;28;20858;-70
2021/03/22 01:21:09;;;;;;;23.50;17.50;;;5.30;99.90;;;;;;5093875;28;20443;-71
2021/03/22 01:23:35;;;;;;;23.73;16.77;;;5.40;99.90;;;;;;5093647;28;20441;-70
2021/03/22 01:26:02;;;;;;;24.83;15.80;;;5.40;99.90;;;;;;5093660;28;20518;-70
2021/03/22 01:28:29;;;;;;;21.13;17.80;;;5.40;99.90;;;;;;5093928;28;20442;-70
2021/03/22 01:30:59;;;;;;;20.93;16.30;;;5.40;99.90;;;;;;5093951;28;20482;-70
2021/03/22 01:33:28;;;;;;;17.40;15.60;;;5.40;99.90;;;;;;5093725;28;20488;-70
2021/03/22 01:35:59;;;;;;;22.70;15.47;;;5.50;99.90;;;;;;5093563;28;20439;-70
2021/03/22 01:38:26;;;;;;;20.77;15.80;;;5.50;99.90;;;;;;5093474;28;20447;-71
2021/03/22 01:41:06;;;;;;;26.63;15.17;;;5.50;99.90;;;;;;5093685;28;20462;-71
2021/03/22 01:44:05;;;;;;;19.53;14.70;;;5.50;99.90;;;;;;5093705;28;20429;-70
2021/03/22 01:46:32;;;;;;;26.03;15.77;;;5.50;99.90;;;;;;5093133;28;21286;-71
2021/03/22 01:49:00;;;;;;;18.50;15.97;;;5.50;99.90;;;;;;5093325;28;20877;-70
2021/03/22 01:51:27;;;;;;;25.23;16.40;;;5.60;99.90;;;;;;5093282;28;20479;-70
2021/03/22 01:53:53;;;;;;;19.33;14.90;;;5.60;99.90;;;;;;5093377;28;20506;-71
2021/03/22 01:56:32;;;;;;;25.47;18.50;;;5.60;99.90;;;;;;5093254;28;20445;-70
2021/03/22 01:58:59;;;;;;;29.57;16.50;;;5.70;99.90;;;;;;5093226;28;20449;-71
2021/03/22 02:01:29;;;;;;;29.17;14.20;;;5.60;99.90;;;;;;5092189;28;20458;-71
2021/03/22 02:03:56;;;;;;;26.30;15.00;;;5.60;99.90;;;;;;5093107;28;20453;-71
2021/03/22 02:06:24;;;;;;;15.70;14.00;;;5.60;99.90;;;;;;5093205;28;20855;-71
2021/03/22 02:08:53;;;;;;;26.30;16.03;;;5.70;99.90;;;;;;5092891;28;20513;-71
2021/03/22 02:11:20;;;;;;;18.57;15.27;;;5.70;99.90;;;;;;5092806;28;20474;-71
2021/03/22 02:13:48;;;;;;;19.10;13.80;;;5.60;99.90;;;;;;5092956;28;20470;-71
2021/03/22 02:16:18;;;;;;;16.40;13.77;;;5.70;99.90;;;;;;5092714;28;20482;-71
2021/03/22 02:19:03;;;;;;;20.23;15.83;;;5.70;99.90;;;;;;5092702;28;20456;-71
2021/03/22 02:21:57;;;;;;;18.33;15.70;;;5.60;99.90;;;;;;5092926;28;20459;-71
2021/03/22 02:24:46;;;;;;;18.50;15.37;;;5.60;99.90;;;;;;5092859;28;20464;-70
2021/03/22 02:27:39;;;;;;;25.33;14.87;;;5.60;99.90;;;;;;5092660;28;20448;-70
2021/03/22 02:30:44;;;;;;;24.90;13.53;;;5.60;99.90;;;;;;5092423;28;20997;-71
2021/03/22 02:33:48;;;;;;;19.47;15.00;;;5.60;99.90;;;;;;5092800;28;20437;-71
2021/03/22 02:36:20;;;;;;;21.83;14.97;;;5.50;99.90;;;;;;5092502;28;20449;-71
2021/03/22 02:38:52;;;;;;;20.27;15.83;;;5.60;99.90;;;;;;5092253;28;20456;-71
2021/03/22 02:41:22;;;;;;;25.03;14.33;;;5.60;99.90;;;;;;5092378;28;20865;-71
2021/03/22 02:44:00;;;;;;;16.40;13.83;;;5.60;99.90;;;;;;5092298;28;20457;-70
2021/03/22 02:46:27;;;;;;;20.00;14.70;;;5.60;99.90;;;;;;5092031;28;20456;-71
2021/03/22 02:48:54;;;;;;;30.20;14.60;;;5.60;99.90;;;;;;5092226;28;20458;-70
2021/03/22 02:51:25;;;;;;;24.20;14.73;;;5.70;99.90;;;;;;5092445;28;20481;-69
2021/03/22 02:53:56;;;;;;;16.17;12.43;;;5.60;99.90;;;;;;5092441;28;20442;-70
2021/03/22 02:56:35;;;;;;;16.47;13.73;;;5.60;99.90;;;;;;5091924;28;20953;-70
2021/03/22 02:59:09;;;;;;;20.87;14.70;;;5.60;99.90;;;;;;5092040;28;20504;-71
2021/03/22 03:01:40;;;;;;;25.60;15.53;;;5.60;99.90;;;;;;5091926;28;20452;-71
2021/03/22 03:04:12;;;;;;;20.13;13.53;;;5.60;99.90;;;;;;5091758;28;20892;-71
2021/03/22 03:06:48;;;;;;;28.60;14.30;;;5.60;99.90;;;;;;5092407;28;20451;-71
2021/03/22 03:09:16;;;;;;;24.07;16.43;;;5.60;99.90;;;;;;5091730;28;20448;-71
2021/03/22 03:11:43;;;;;;;21.57;14.37;;;5.70;99.90;;;;;;5091756;28;20533;-71
2021/03/22 03:14:09;;;;;;;23.03;13.73;;;5.60;99.90;;;;;;5091848;28;20454;-71
2021/03/22 03:16:35;;;;;;;31.60;15.87;;;5.60;99.90;;;;;;5091672;28;20490;-71
2021/03/22 03:19:02;;;;;;;23.43;14.40;;;5.60;99.90;;;;;;5091506;28;20457;-71
2021/03/22 03:21:29;;;;;;;19.07;13.50;;;5.60;99.90;;;;;;5091515;28;20456;-71
2021/03/22 03:23:55;;;;;;;20.90;15.47;;;5.60;99.90;;;;;;5091645;28;20959;-70
2021/03/22 03:26:22;;;;;;;15.73;13.27;;;5.50;99.90;;;;;;5091339;28;21024;-71
2021/03/22 03:28:48;;;;;;;16.70;14.27;;;5.50;99.90;;;;;;5091422;28;20438;-71
2021/03/22 03:31:14;;;;;;;14.40;12.90;;;5.50;99.90;;;;;;5091335;28;20842;-71
2021/03/22 03:33:40;;;;;;;24.00;14.70;;;5.60;99.90;;;;;;5091331;28;20505;-70
2021/03/22 03:36:08;;;;;;;20.67;13.13;;;5.60;99.90;;;;;;5091234;28;20856;-69
2021/03/22 03:38:35;;;;;;;14.23;12.47;;;5.50;99.90;;;;;;5091416;28;20502;-70
2021/03/22 03:41:01;;;;;;;15.53;13.93;;;5.50;99.90;;;;;;5091035;28;21026;-70
2021/03/22 03:43:27;;;;;;;16.90;12.80;;;5.40;99.90;;;;;;5091124;28;20459;-70
2021/03/22 03:45:54;;;;;;;22.37;11.63;;;5.40;99.90;;;;;;5091247;28;20928;-70
2021/03/22 03:48:22;;;;;;;15.37;13.53;;;5.30;99.90;;;;;;5091542;28;20452;-70
2021/03/22 03:50:49;;;;;;;13.60;12.30;;;5.40;99.90;;;;;;5090650;28;20986;-70
2021/03/22 03:53:16;;;;;;;17.80;12.93;;;5.40;99.90;;;;;;5091032;28;20463;-71
2021/03/22 03:55:43;;;;;;;22.17;12.83;;;5.30;99.90;;;;;;5090930;28;20495;-71
2021/03/22 03:58:09;;;;;;;14.43;12.10;;;5.30;99.90;;;;;;5091151;28;20808;-71
2021/03/22 04:00:39;;;;;;;21.93;13.23;;;5.30;99.90;;;;;;5090667;28;20441;-71
2021/03/22 04:03:25;;;;;;;14.20;12.83;;;5.30;99.90;;;;;;5090756;28;21016;-71
2021/03/22 04:05:57;;;;;;;19.10;13.20;;;5.30;99.90;;;;;;5091141;28;20489;-70
2021/03/22 04:08:24;;;;;;;16.30;14.07;;;5.30;99.90;;;;;;5090960;28;20476;-71
2021/03/22 04:10:52;;;;;;;16.53;13.20;;;5.30;99.90;;;;;;5090795;28;20497;-71
2021/03/22 04:13:19;;;;;;;19.40;12.50;;;5.30;99.90;;;;;;5090596;28;20455;-69
2021/03/22 04:15:46;;;;;;;15.17;12.83;;;5.30;99.90;;;;;;5090516;28;20812;-72
2021/03/22 04:18:12;;;;;;;14.23;11.57;;;5.30;99.90;;;;;;5090562;28;20457;-72
2021/03/22 04:20:39;;;;;;;21.33;13.20;;;5.30;99.90;;;;;;5091048;28;20803;-71
2021/03/22 04:23:05;;;;;;;16.43;12.23;;;5.30;99.90;;;;;;5090670;28;20447;-71
2021/03/22 04:25:32;;;;;;;22.13;12.53;;;5.30;99.90;;;;;;5090196;28;20453;-72
2021/03/22 04:27:59;;;;;;;15.90;12.30;;;5.30;99.90;;;;;;5090351;28;20450;-72
2021/03/22 04:30:26;;;;;;;15.93;13.50;;;5.30;99.90;;;;;;5090667;28;20581;-71
2021/03/22 04:32:52;;;;;;;21.13;12.57;;;5.40;99.90;;;;;;5090893;28;20448;-71
2021/03/22 04:35:20;;;;;;;12.77;10.90;;;5.40;99.90;;;;;;5090193;28;20459;-71
2021/03/22 04:37:46;;;;;;;14.67;11.77;;;5.40;99.90;;;;;;5090368;28;20769;-71
2021/03/22 04:40:13;;;;;;;14.53;12.90;;;5.40;99.90;;;;;;5090203;28;20454;-71
2021/03/22 04:42:40;;;;;;;11.97;10.53;;;5.50;99.90;;;;;;5090427;28;20473;-71
2021/03/22 04:45:09;;;;;;;14.60;10.57;;;5.50;99.90;;;;;;5090597;28;20442;-71
2021/03/22 04:47:36;;;;;;;27.27;12.53;;;5.50;99.90;;;;;;5090194;28;20536;-71
2021/03/22 04:50:02;;;;;;;14.50;12.10;;;5.50;99.90;;;;;;5090090;28;20806;-71
2021/03/22 04:52:29;;;;;;;15.10;11.50;;;5.50;99.90;;;;;;5090323;28;20439;-70
2021/03/22 04:54:55;;;;;;;11.47;10.33;;;5.60;99.90;;;;;;5090523;28;20915;-71
2021/03/22 04:57:27;;;;;;;15.37;12.30;;;5.40;99.90;;;;;;5090501;28;20450;-69
2021/03/22 04:59:54;;;;;;;14.63;11.00;;;5.50;99.90;;;;;;5090346;28;20459;-70
2021/03/22 05:02:21;;;;;;;14.23;12.80;;;5.50;99.90;;;;;;5089983;28;20457;-70
2021/03/22 05:04:47;;;;;;;18.00;12.20;;;5.50;99.90;;;;;;5090228;28;20459;-70
2021/03/22 05:07:14;;;;;;;19.17;11.00;;;5.50;99.90;;;;;;5090196;28;20447;-71
2021/03/22 05:09:40;;;;;;;11.47;10.37;;;5.40;99.90;;;;;;5090128;28;20451;-71
2021/03/22 05:12:07;;;;;;;15.17;10.70;;;5.50;99.90;;;;;;5090099;28;20489;-71
2021/03/22 05:14:34;;;;;;;21.57;12.10;;;5.40;99.90;;;;;;5090156;28;20448;-71
2021/03/22 05:17:00;;;;;;;23.33;10.93;;;5.50;99.90;;;;;;5089659;28;20835;-71
2021/03/22 05:19:27;;;;;;;14.77;10.70;;;5.50;99.90;;;;;;5089977;28;20447;-71
2021/03/22 05:21:56;;;;;;;18.83;14.03;;;5.40;99.90;;;;;;5090272;28;20450;-71
2021/03/22 05:24:23;;;;;;;16.83;12.43;;;5.40;99.90;;;;;;5089953;28;20468;-70
2021/03/22 05:26:49;;;;;;;11.20;10.20;;;5.40;99.90;;;;;;5089750;28;20889;-70
2021/03/22 05:29:16;;;;;;;13.77;10.40;;;5.40;99.90;;;;;;5089713;28;20957;-71
2021/03/22 05:31:42;;;;;;;19.03;13.00;;;5.40;99.90;;;;;;5089886;28;20489;-71
2021/03/22 05:34:08;;;;;;;12.23;10.87;;;5.40;99.90;;;;;;5089958;28;20456;-71
2021/03/22 05:36:35;;;;;;;19.93;13.40;;;5.50;99.90;;;;;;5090291;28;20510;-71
2021/03/22 05:39:02;;;;;;;12.67;11.17;;;5.50;99.90;;;;;;5093279;28;20828;-71
2021/03/22 05:41:30;;;;;;;11.57;10.40;;;5.50;99.90;;;;;;5093359;28;20473;-71
2021/03/22 05:44:04;;;;;;;13.10;10.50;;;5.50;99.90;;;;;;5093655;28;20561;-71
2021/03/22 05:46:40;;;;;;;17.10;10.90;;;5.50;99.90;;;;;;5093441;28;20572;-71
2021/03/22 05:49:42;;;;;;;19.73;11.23;;;5.50;99.90;;;;;;5093396;28;20447;-71
2021/03/22 05:52:32;;;;;;;12.77;11.20;;;5.50;99.90;;;;;;5093472;28;20486;-71
2021/03/22 05:55:29;;;;;;;11.00;9.70;;;5.50;99.90;;;;;;5093276;28;20486;-71
2021/03/22 05:58:09;;;;;;;10.53;9.90;;;5.60;99.90;;;;;;5093262;28;20458;-71
2021/03/22 06:00:48;;;;;;;16.50;9.40;;;5.50;99.90;;;;;;5093653;28;20452;-71
2021/03/22 06:03:23;;;;;;;13.87;10.63;;;5.60;99.90;;;;;;5092997;28;21010;-71
2021/03/22 06:05:58;;;;;;;17.50;10.73;;;5.60;99.90;;;;;;5093211;28;20457;-70
2021/03/22 06:08:35;;;;;;;14.27;12.00;;;5.60;99.90;;;;;;5093259;28;20456;-71
2021/03/22 06:11:10;;;;;;;20.30;10.97;;;5.70;99.90;;;;;;5093103;28;20515;-71
2021/03/22 06:13:42;;;;;;;12.60;11.50;;;5.70;99.90;;;;;;5093022;28;20457;-71
2021/03/22 06:16:21;;;;;;;17.10;11.23;;;5.70;99.90;;;;;;5092910;28;21030;-71
2021/03/22 06:18:56;;;;;;;18.97;13.87;;;5.70;99.90;;;;;;5092749;28;20447;-70
2021/03/22 06:21:24;;;;;;;13.37;11.60;;;5.70;99.90;;;;;;5093048;28;20444;-70
2021/03/22 06:23:51;;;;;;;18.57;10.13;;;5.70;99.90;;;;;;5092954;28;20453;-71
2021/03/22 06:26:33;;;;;;;17.43;10.47;;;5.70;99.90;;;;;;5092766;28;20501;-72
2021/03/22 06:29:03;;;;;;;22.77;11.80;;;5.70;99.90;;;;;;5092770;28;20452;-71
2021/03/22 06:31:30;;;;;;;13.80;11.50;;;5.80;99.90;;;;;;5092468;28;20483;-71
2021/03/22 06:34:02;;;;;;;18.93;10.40;;;5.90;99.90;;;;;;5092547;28;20465;-72
2021/03/22 06:36:29;;;;;;;13.60;11.80;;;5.70;99.90;;;;;;5092224;28;20461;-72
2021/03/22 06:38:58;;;;;;;18.80;14.00;;;5.70;99.90;;;;;;5092621;28;20987;-72
2021/03/22 06:41:34;;;;;;;13.40;10.47;;;5.70;99.90;;;;;;5092342;28;21002;-72
2021/03/22 06:44:05;;;;;;;20.87;11.00;;;5.80;99.90;;;;;;5092314;28;20461;-72
2021/03/22 06:46:31;;;;;;;13.87;12.10;;;5.80;99.90;;;;;;5092442;28;20468;-71
2021/03/22 06:48:59;;;;;;;19.93;12.27;;;5.80;99.90;;;;;;5089953;28;20447;-71
2021/03/22 06:51:25;;;;;;;17.30;11.83;;;5.90;99.90;;;;;;5091360;28;20483;-71
2021/03/22 06:53:53;;;;;;;15.03;12.00;;;5.80;99.90;;;;;;5092115;28;20503;-71
2021/03/22 06:56:26;;;;;;;17.13;11.10;;;5.90;99.90;;;;;;5092147;28;20963;-71
2021/03/22 06:59:10;;;;;;;21.43;11.13;;;5.90;99.90;;;;;;5092488;28;20448;-71
2021/03/22 07:01:37;;;;;;;17.03;11.40;;;5.90;99.90;;;;;;5091886;28;20444;-71
2021/03/22 07:04:24;;;;;;;17.10;9.73;;;5.90;99.90;;;;;;5091658;28;20461;-70
2021/03/22 07:07:12;;;;;;;16.10;11.53;;;6.00;99.90;;;;;;5092041;28;20431;-71
2021/03/22 07:09:42;;;;;;;17.83;12.03;;;6.00;99.90;;;;;;5091847;28;20464;-72
2021/03/22 07:12:31;;;;;;;17.70;12.43;;;6.00;99.90;;;;;;5091478;28;20488;-71
2021/03/22 07:15:31;;;;;;;23.53;12.63;;;6.00;99.90;;;;;;5091620;28;20835;-72
2021/03/22 07:18:07;;;;;;;26.83;12.13;;;6.20;99.90;;;;;;5091272;28;20487;-71
2021/03/22 07:20:33;;;;;;;15.53;10.87;;;6.30;99.90;;;;;;5091385;28;20473;-71
2021/03/22 07:23:39;;;;;;;25.07;12.77;;;6.30;99.90;;;;;;5091267;28;20965;-70
2021/03/22 07:26:11;;;;;;;12.67;10.10;;;6.40;99.90;;;;;;5077844;28;20464;-71
2021/03/22 07:28:52;;;;;;;21.43;11.67;;;6.40;99.90;;;;;;5091673;28;20822;-71
2021/03/22 07:31:26;;;;;;;17.30;10.80;;;6.60;99.90;;;;;;5091100;28;20475;-71
2021/03/22 07:34:04;;;;;;;20.17;11.03;;;6.70;99.90;;;;;;5091449;28;20814;-71
2021/03/22 07:36:40;;;;;;;12.90;11.20;;;6.60;99.90;;;;;;5090771;28;20450;-71
2021/03/22 07:39:18;;;;;;;14.70;10.23;;;6.60;99.90;;;;;;5091181;28;20809;-71
2021/03/22 07:42:04;;;;;;;20.93;12.57;;;6.70;99.90;;;;;;5091141;28;20861;-71
2021/03/22 07:44:46;;;;;;;15.47;12.00;;;6.60;99.90;;;;;;5090927;28;20451;-71
2021/03/22 07:47:38;;;;;;;18.00;11.03;;;6.50;99.90;;;;;;5090518;28;20456;-71
2021/03/22 07:50:15;;;;;;;16.77;14.60;;;6.60;99.90;;;;;;5090995;28;20446;-71
2021/03/22 07:52:43;;;;;;;22.20;11.07;;;6.50;99.90;;;;;;5090723;28;20788;-72
2021/03/22 07:55:27;;;;;;;13.07;10.93;;;6.60;99.90;;;;;;5090844;28;20806;-72
2021/03/22 07:57:59;;;;;;;13.27;11.70;;;6.70;99.90;;;;;;5090814;28;20899;-72
2021/03/22 08:00:36;;;;;;;17.83;11.20;;;6.90;99.90;;;;;;5089581;28;20448;-71
2021/03/22 08:03:22;;;;;;;14.07;11.27;;;6.80;99.90;;;;;;5090356;28;20813;-72
2021/03/22 08:06:24;;;;;;;16.83;10.90;;;6.60;99.90;;;;;;5090043;28;20457;-72
2021/03/22 08:09:14;;;;;;;15.63;11.90;;;6.60;99.90;;;;;;5090299;28;20510;-72
2021/03/22 08:11:45;;;;;;;17.83;10.50;;;6.70;99.90;;;;;;5090709;28;20899;-72
2021/03/22 08:14:20;;;;;;;13.13;10.47;;;6.90;99.90;;;;;;5090663;28;20449;-72
2021/03/22 08:17:33;;;;;;;14.07;10.83;;;7.00;99.90;;;;;;5090381;28;20484;-72
2021/03/22 08:20:10;;;;;;;11.83;9.80;;;6.90;99.90;;;;;;5090923;28;20478;-72
2021/03/22 08:22:43;;;;;;;10.30;9.30;;;7.20;99.90;;;;;;5090942;28;20448;-72
2021/03/22 08:25:24;;;;;;;23.10;12.13;;;7.30;99.90;;;;;;5090857;28;20454;-72
2021/03/22 08:27:56;;;;;;;12.90;10.50;;;7.40;99.90;;;;;;5091062;28;20495;-72
2021/03/22 08:30:33;;;;;;;10.40;9.40;;;7.60;99.90;;;;;;5094065;28;20481;-72
2021/03/22 08:33:04;;;;;;;16.70;10.13;;;7.50;99.90;;;;;;5095356;28;20530;-72
2021/03/22 08:35:36;;;;;;;21.30;11.50;;;7.70;99.90;;;;;;5109882;28;20514;-71
2021/03/22 08:38:09;;;;;;;14.77;10.77;;;7.90;99.90;;;;;;5106551;28;20891;-71
2021/03/22 08:40:43;;;;;;;15.70;9.87;;;8.10;99.90;;;;;;5090953;28;20453;-72
2021/03/22 08:43:19;;;;;;;13.67;10.07;;;8.00;99.80;;;;;;5091118;28;20490;-71
2021/03/22 08:46:00;;;;;;;13.27;10.40;;;7.90;99.90;;;;;;5090803;28;20450;-72
2021/03/22 08:48:28;;;;;;;13.57;12.33;;;7.90;99.90;;;;;;5098597;28;20817;-72
2021/03/22 08:50:57;;;;;;;12.50;11.30;;;8.10;99.90;;;;;;5090627;28;20501;-72
2021/03/22 08:53:26;;;;;;;11.70;10.50;;;8.20;99.70;;;;;;5090635;28;20448;-71
2021/03/22 08:55:59;;;;;;;16.23;13.07;;;8.20;99.80;;;;;;5090486;28;20446;-72
2021/03/22 08:58:28;;;;;;;11.10;9.53;;;8.20;99.00;;;;;;5090370;28;20442;-71
2021/03/22 09:00:56;;;;;;;12.17;10.50;;;8.20;99.70;;;;;;5090255;28;20478;-71
2021/03/22 09:03:31;;;;;;;14.47;10.10;;;8.30;99.50;;;;;;5089906;28;20450;-71
2021/03/22 09:06:11;;;;;;;11.30;10.50;;;8.30;99.30;;;;;;5089706;28;20445;-71
2021/03/22 09:08:40;;;;;;;16.07;10.50;;;8.20;99.90;;;;;;5089886;28;20446;-72
2021/03/22 09:11:16;;;;;;;17.70;9.77;;;8.10;99.90;;;;;;5090854;28;20482;-72
2021/03/22 09:13:52;;;;;;;24.53;9.60;;;8.20;99.80;;;;;;5093649;28;20446;-72
2021/03/22 09:16:38;;;;;;;18.23;12.60;;;8.30;99.40;;;;;;5093207;28;20507;-72
2021/03/22 09:19:40;;;;;;;14.20;10.10;;;8.20;99.10;;;;;;5093729;28;20449;-71
2021/03/22 09:22:46;;;;;;;14.47;10.10;;;8.10;99.40;;;;;;5093566;28;20434;-72
2021/03/22 09:25:35;;;;;;;12.23;10.50;;;7.90;99.40;;;;;;5093695;28;20449;-72
2021/03/22 09:28:20;;;;;;;20.17;10.47;;;7.70;99.70;;;;;;5093138;28;20445;-72
2021/03/22 09:30:55;;;;;;;11.80;10.30;;;7.60;99.90;;;;;;5093127;28;20496;-72
2021/03/22 09:33:52;;;;;;;17.37;10.47;;;7.50;99.90;;;;;;5093503;28;20458;-72
2021/03/22 09:36:36;;;;;;;11.77;10.57;;;7.70;99.90;;;;;;5093382;28;20457;-72
2021/03/22 09:39:07;;;;;;;14.17;10.67;;;7.80;99.90;;;;;;5091663;28;20512;-72
2021/03/22 09:42:05;;;;;;;11.33;10.33;;;8.00;99.90;;;;;;5093080;28;20828;-73
2021/03/22 09:44:35;;;;;;;10.33;9.53;;;7.80;99.90;;;;;;5093530;28;21008;-72
2021/03/22 09:47:17;;;;;;;10.93;10.03;;;7.80;99.90;;;;;;5093355;28;21166;-72
2021/03/22 09:50:19;;;;;;;9.67;9.07;;;7.60;99.90;;;;;;5093724;28;20446;-72
2021/03/22 09:53:13;;;;;;;11.33;10.33;;;7.80;99.90;;;;;;5093531;28;20486;-72
2021/03/22 09:55:44;;;;;;;10.73;9.47;;;7.90;99.90;;;;;;5093607;28;20788;-68
2021/03/22 09:58:28;;;;;;;9.83;9.00;;;8.00;99.90;;;;;;5093348;28;20450;-68
2021/03/22 10:01:00;;;;;;;8.90;8.30;;;7.90;99.60;;;;;;5093549;28;20439;-68
2021/03/22 10:03:39;;;;;;;9.70;8.90;;;8.00;99.90;;;;;;5113594;27;20461;-68
2021/03/22 10:06:28;;;;;;;14.30;10.60;;;8.30;99.90;;;;;;5099191;27;20814;-68
2021/03/22 10:08:56;;;;;;;16.70;10.33;;;8.50;98.80;;;;;;5130761;27;20452;-69
2021/03/22 10:11:25;;;;;;;10.83;9.53;;;8.70;98.90;;;;;;5122440;27;21017;-68
2021/03/22 10:13:58;;;;;;;15.10;9.23;;;9.00;97.50;;;;;;5113466;28;20920;-69
2021/03/22 10:16:30;;;;;;;10.90;9.70;;;9.60;97.10;;;;;;5113379;28;20477;-69
2021/03/22 10:18:59;;;;;;;12.60;10.73;;;10.20;95.70;;;;;;5116253;27;20451;-69
2021/03/22 10:21:28;;;;;;;12.27;9.20;;;10.50;94.30;;;;;;5134048;27;20486;-70
2021/03/22 10:24:01;;;;;;;10.40;9.70;;;10.40;94.00;;;;;;5133170;27;20493;-72
2021/03/22 10:26:35;;;;;;;14.13;9.57;;;10.10;93.60;;;;;;5133586;27;20530;-72
2021/03/22 10:29:14;;;;;;;11.07;10.10;;;9.70;94.80;;;;;;5133506;27;20451;-72
2021/03/22 10:31:42;;;;;;;11.07;10.03;;;9.70;94.90;;;;;;5133487;27;20487;-72
2021/03/22 10:34:20;;;;;;;9.73;8.93;;;9.50;94.90;;;;;;5133941;27;20543;-72
2021/03/22 10:36:47;;;;;;;11.63;10.50;;;9.10;95.70;;;;;;5123782;27;20475;-72
2021/03/22 10:39:25;;;;;;;11.70;10.10;;;9.00;96.20;;;;;;5113020;28;20449;-71
2021/03/22 10:41:51;;;;;;;12.43;11.20;;;8.90;96.10;;;;;;5113221;28;20511;-72
2021/03/22 10:44:22;;;;;;;10.63;9.90;;;8.60;96.40;;;;;;5113032;28;20453;-72
2021/03/22 10:47:02;;;;;;;10.93;9.87;;;8.60;96.70;;;;;;5112928;28;20477;-72
2021/03/22 10:49:28;;;;;;;9.30;8.50;;;8.60;96.60;;;;;;5112957;28;20445;-72
2021/03/22 10:51:56;;;;;;;10.20;8.90;;;8.70;96.90;;;;;;5113025;28;20542;-72
2021/03/22 10:54:39;;;;;;;9.60;8.80;;;9.00;97.50;;;;;;5112811;28;20505;-73
2021/03/22 10:57:06;;;;;;;10.40;9.37;;;9.00;97.40;;;;;;5112814;28;20472;-72
2021/03/22 10:59:36;;;;;;;10.43;9.53;;;8.90;97.80;;;;;;5112507;28;20449;-72
2021/03/22 11:02:17;;;;;;;10.53;9.50;;;8.80;97.60;;;;;;5112621;28;20442;-72
2021/03/22 11:04:45;;;;;;;10.67;9.77;;;8.90;97.70;;;;;;5112657;28;20793;-71
2021/03/22 11:07:14;;;;;;;9.73;8.93;;;9.10;97.50;;;;;;5112932;28;20475;-71
2021/03/22 11:09:52;;;;;;;13.60;9.33;;;9.30;96.70;;;;;;5112686;28;20494;-71
2021/03/22 11:12:20;;;;;;;10.60;9.70;;;9.60;96.30;;;;;;5092042;28;20843;-71
2021/03/22 11:14:47;;;;;;;10.80;9.87;;;9.70;95.60;;;;;;5092238;28;20458;-72
2021/03/22 11:17:16;;;;;;;11.63;10.53;;;9.80;95.20;;;;;;5091465;28;21082;-72
2021/03/22 11:19:44;;;;;;;12.47;11.50;;;9.90;95.20;;;;;;5091480;28;20449;-72
2021/03/22 11:22:25;;;;;;;12.70;11.57;;;10.20;94.20;;;;;;5091716;28;20551;-72
2021/03/22 11:24:54;;;;;;;13.33;12.23;;;10.50;93.40;;;;;;5091827;28;20469;-72
2021/03/22 11:27:21;;;;;;;11.60;10.70;;;10.60;93.10;;;;;;5091838;28;20454;-72
2021/03/22 11:29:57;;;;;;;10.47;9.50;;;10.80;93.40;;;;;;5091978;28;20456;-72
2021/03/22 11:32:53;;;;;;;11.27;10.17;;;11.00;92.70;;;;;;5091734;28;20481;-71
2021/03/22 11:35:24;;;;;;;10.57;9.70;;;10.80;92.50;;;;;;5086600;28;20462;-72
2021/03/22 11:37:52;;;;;;;10.20;9.60;;;10.70;92.50;;;;;;5088578;28;20477;-72
2021/03/22 11:40:24;;;;;;;10.80;10.00;;;10.70;92.30;;;;;;5094945;28;21367;-72
2021/03/22 11:42:57;;;;;;;12.23;11.20;;;10.90;92.40;;;;;;5102510;28;20484;-73
2021/03/22 11:45:30;;;;;;;10.33;9.73;;;11.00;92.40;;;;;;5111959;28;20507;-72
2021/03/22 11:47:57;;;;;;;10.73;10.03;;;11.20;91.80;;;;;;5093820;28;20451;-72
2021/03/22 11:50:45;;;;;;;9.90;9.40;;;11.60;91.30;;;;;;5091643;28;20554;-72
2021/03/22 11:53:18;;;;;;;10.70;10.10;;;11.60;90.50;;;;;;5091323;28;20486;-72
2021/03/22 11:55:47;;;;;;;11.63;10.50;;;11.30;90.80;;;;;;5103161;28;20448;-72
2021/03/22 11:58:36;;;;;;;10.10;9.47;;;11.40;90.90;;;;;;5111679;28;20453;-72
2021/03/22 12:01:22;;;;;;;11.17;10.23;;;11.50;90.80;;;;;;5105787;28;20470;-72
2021/03/22 12:04:09;;;;;;;9.90;9.30;;;11.70;90.70;;;;;;5111565;28;20934;-72
2021/03/22 12:07:00;;;;;;;12.07;11.27;;;11.50;89.60;;;;;;5111613;28;20949;-72
2021/03/22 12:09:28;;;;;;;10.97;9.97;;;11.30;90.40;;;;;;5111713;28;20555;-72
2021/03/22 12:11:56;;;;;;;10.47;9.77;;;11.20;90.70;;;;;;5093226;28;20489;-73
2021/03/22 12:14:22;;;;;;;11.50;10.60;;;11.10;90.60;;;;;;5091433;28;20450;-73
2021/03/22 12:16:50;;;;;;;11.30;10.33;;;11.10;91.00;;;;;;5097320;28;20484;-70
2021/03/22 12:19:21;;;;;;;11.20;10.30;;;11.10;90.60;;;;;;5111332;28;20460;-69
2021/03/22 12:21:49;;;;;;;10.20;9.07;;;11.00;90.80;;;;;;5111164;28;20453;-72
2021/03/22 12:24:18;;;;;;;15.60;10.53;;;10.50;91.00;;;;;;5108485;28;20449;-72
2021/03/22 12:26:45;;;;;;;10.67;9.80;;;10.40;91.90;;;;;;5111417;28;20776;-72
2021/03/22 12:29:11;;;;;;;9.90;9.20;;;10.40;92.00;;;;;;5111447;28;20449;-72
2021/03/22 12:31:41;;;;;;;14.33;12.10;;;10.40;92.10;;;;;;5111458;28;20489;-72
2021/03/22 12:34:11;;;;;;;11.20;10.23;;;10.00;92.10;;;;;;5111410;28;20446;-72
2021/03/22 12:36:37;;;;;;;11.63;10.80;;;9.70;93.20;;;;;;5111423;28;20441;-72
2021/03/22 12:39:11;;;;;;;11.63;10.70;;;9.40;93.70;;;;;;5111491;28;20833;-72
2021/03/22 12:41:37;;;;;;;10.93;9.97;;;9.50;94.00;;;;;;5111422;28;20461;-72
2021/03/22 12:44:04;;;;;;;12.87;11.60;;;9.30;93.90;;;;;;5111084;28;20448;-69
2021/03/22 12:46:30;;;;;;;12.67;10.83;;;9.20;94.20;;;;;;5112660;28;20463;-72
2021/03/22 12:48:57;;;;;;;12.07;11.00;;;9.00;94.30;;;;;;5115661;28;20928;-72
2021/03/22 12:51:23;;;;;;;11.40;10.60;;;8.80;94.80;;;;;;5115746;28;20473;-72
2021/03/22 12:53:49;;;;;;;12.20;10.97;;;8.80;95.20;;;;;;5115753;28;20452;-72
2021/03/22 12:56:18;;;;;;;12.50;11.40;;;8.80;95.60;;;;;;5115693;28;20454;-71
2021/03/22 12:58:44;;;;;;;11.13;10.40;;;8.80;95.80;;;;;;5114858;28;20437;-70
2021/03/22 13:01:15;;;;;;;10.43;9.73;;;8.60;96.00;;;;;;5103977;28;20936;-70
2021/03/22 13:03:41;;;;;;;15.13;11.50;;;8.40;96.70;;;;;;5112631;27;20480;-70
2021/03/22 13:06:08;;;;;;;12.53;11.63;;;8.20;97.10;;;;;;5104311;28;20429;-72